Latest Coastal Weather Observations for Rhyll

IDV60701

Issued at 9:35 pm EST Thursday 31 July 2014 (issued every 10 minutes, with the page automatically refreshed every 10 minutes)

About coastal observations | Map of coastal stations | Coastal observations for VIC | Marine services | Other Formats
Station Details ID: 086373 Name: RHYLL Lat: -38.46 Lon: 145.31 Height: 13.4 m
Data from the previous 72 hours. | See also: Recent months at Rhyll
Date/Time
EST
Temp

°C
Wind Pressure Rain
since 9am
mm
Weather Cloud Vis
km
Sea
Height
m
Swell
Dir
 
Speed
knots
Gust
knots
hPa Trend Height
m
Period
s
Dir
31/09:30pm 8.5 W 12 20 999.5 - 6.8 - - - - - - -
31/09:00pm 8.9 WNW 9 19 999.2 - 6.8 - - - - - - -
31/08:30pm 9.2 WNW 10 18 999.4 - 6.8 - - - - - - -
31/08:00pm 9.2 NW 10 21 998.8 - 6.8 - - - - - - -
31/07:30pm 8.7 NW 9 17 998.6 - 6.8 - - - - - - -
31/07:00pm 8.5 NW 8 15 998.7 - 6.8 - - - - - - -
31/06:30pm 8.2 NW 10 19 998.2 - 6.8 - - - - - - -
31/06:00pm 7.8 WNW 9 16 998.3 - 6.8 Recent precip. - - - - - -
31/05:30pm 7.4 W 11 18 998.0 - 6.6 - - - - - - -
31/05:00pm 7.6 W 12 26 997.9 - 5.8 - - - - - - -
31/04:30pm 8.0 W 12 22 997.5 - 5.4 - - - - - - -
31/04:00pm 8.4 W 10 19 996.8 - 4.0 - - - - - - -
31/03:30pm 8.4 W 11 25 996.2 - 3.6 - - - - - - -
31/03:00pm 9.2 WSW 15 27 995.4 - 2.2 Rain - - - - - -
31/02:30pm 10.6 W 15 25 994.6 - 0.4 - - - - - - -
31/02:18pm 13.1 WSW 20 30 993.7 - 0.0 - - - - - - -
31/02:00pm 15.9 NNW 16 29 992.0 - 0.0 - - - - - - -
31/01:30pm 15.9 NNW 21 31 992.3 - 0.0 - - - - - - -
31/01:00pm 16.3 NNW 27 43 992.7 - 0.0 - - - - - - -
31/12:36pm 16.2 NNW 29 41 993.1 - 0.0 - - - - - - -
31/12:30pm 16.4 NNW 28 37 993.4 - 0.0 - - - - - - -
31/12:00pm 15.9 NNW 30 41 993.9 - 0.0 - - - - - - -
31/11:30am 15.8 NNW 25 37 995.3 - 0.0 - - - - - - -
31/11:05am 15.6 NNW 27 37 996.2 - 0.0 - - - - - - -
31/11:00am 15.6 NNW 28 36 996.4 - 0.0 - - - - - - -
31/10:30am 15.4 NNW 31 42 996.6 - 0.0 - - - - - - -
31/10:08am 15.3 NNW 32 43 996.6 - 0.0 - - - - - - -
31/10:00am 15.0 NNW 32 40 996.8 - 0.0 - - - - - - -
31/09:42am 14.9 NNW 31 42 997.1 - 0.0 - - - - - - -
31/09:30am 14.8 NNW 33 43 996.7 - 0.0 - - - - - - -
31/09:04am 14.5 NNW 33 46 997.4 - 0.0 - - - - - - -
31/09:00am 14.5 NNW 32 40 997.5 - 0.4 - - - - - - -
31/08:36am 14.3 N 29 40 998.5 - 0.4 - - - - - - -
31/08:30am 14.2 N 29 38 998.6 - 0.4 - - - - - - -
31/08:00am 14.1 N 25 34 999.4 - 0.4 - - - - - - -
31/07:30am 13.8 N 21 31 1000.2 - 0.4 - - - - - - -
31/07:13am 13.7 N 22 32 1000.2 - 0.4 - - - - - - -
31/07:00am 13.6 N 22 29 1000.4 - 0.4 - - - - - - -
31/06:30am 13.6 N 24 31 1000.7 - 0.4 - - - - - - -
31/06:00am 13.7 N 29 37 1000.5 - 0.4 - - - - - - -
31/05:30am 13.7 N 28 37 1000.6 - 0.4 - - - - - - -
31/05:00am 13.9 N 25 33 1001.3 - 0.4 - - - - - - -
31/04:30am 13.9 N 21 28 1001.9 - 0.4 - - - - - - -
31/04:00am 13.9 N 20 26 1002.7 - 0.4 - - - - - - -
31/03:30am 14.3 N 23 28 1003.3 - 0.4 - - - - - - -
31/03:00am 14.6 N 24 33 1003.7 - 0.4 - - - - - - -
31/02:59am 14.5 N 23 33 1003.7 - 0.4 - - - - - - -
31/02:30am 14.1 N 20 25 1004.2 - 0.4 - - - - - - -
31/02:00am 14.1 NNW 21 28 1004.6 - 0.4 - - - - - - -
31/01:30am 14.3 NNW 21 31 1004.8 - 0.4 - - - - - - -
31/01:29am 14.2 NNW 20 31 1004.8 - 0.4 - - - - - - -
31/01:00am 14.2 NNW 17 24 1005.5 - 0.4 - - - - - - -
31/12:30am 14.4 NNW 18 25 1006.1 - 0.4 - - - - - - -
31/12:13am 13.9 NNW 16 26 1006.3 - 0.4 - - - - - - -
31/12:00am 14.3 NNW 18 26 1006.6 - 0.4 - - - - - - -
 
Date/Time
EST
Temp

°C
Wind Pressure Rain
since 9am
mm
Weather Cloud Vis
km
Sea
Height
m
Swell
Dir
 
Speed
knots
Gust
knots
hPa Trend Height
m
Period
s
Dir
30/11:49pm 14.3 NNW 18 30 1006.6 - 0.4 - - - - - - -
30/11:30pm 14.8 NNW 19 28 1006.9 - 0.4 - - - - - - -
30/11:00pm 14.4 NNW 17 25 1007.2 - 0.4 - - - - - - -
30/10:30pm 14.8 NNW 21 27 1007.2 - 0.4 - - - - - - -
30/10:00pm 14.7 NNW 19 27 1007.3 - 0.4 - - - - - - -
30/09:30pm 14.7 NNW 19 25 1007.7 - 0.4 - - - - - - -
30/09:00pm 15.1 NNW 18 28 1008.0 - 0.4 - - - - - - -
30/08:51pm 14.9 NNW 15 25 1008.2 - 0.4 - - - - - - -
30/08:30pm 15.0 NNW 18 25 1007.9 - 0.4 - - - - - - -
30/08:00pm 14.7 NNW 16 24 1007.8 - 0.4 - - - - - - -
30/07:30pm 14.5 NNW 17 22 1007.7 - 0.4 - - - - - - -
30/07:00pm 14.9 NNW 17 26 1008.0 - 0.4 - - - - - - -
30/06:53pm 15.1 NNW 16 26 1008.1 - 0.4 - - - - - - -
30/06:30pm 15.0 NNW 16 25 1008.0 - 0.4 - - - - - - -
30/06:00pm 15.0 NNW 19 28 1007.8 - 0.4 - - - - - - -
30/05:40pm 15.1 NNW 16 26 1007.7 - 0.4 - - - - - - -
30/05:30pm 15.1 NNW 17 25 1007.6 - 0.4 - - - - - - -
30/05:00pm 14.5 NNW 15 21 1007.7 - 0.4 - - - - - - -
30/04:30pm 14.2 NW 8 14 1008.0 - 0.4 - - - - - - -
30/04:00pm 14.0 NW 8 13 1008.3 - 0.4 - - - - - - -
30/03:30pm 15.1 NW 9 19 1008.1 - 0.4 - - - - - - -
30/03:00pm 14.3 NNW 7 12 1008.3 - 0.0 - - - - - - -
30/02:30pm 14.6 NW 8 17 1008.1 - 0.0 - - - - - - -
30/02:00pm 15.2 NW 10 19 1008.5 - 0.0 - - - - - - -
30/01:30pm 16.0 NW 9 17 1008.3 - 0.0 - - - - - - -
30/01:00pm 15.9 WNW 8 19 1009.2 - 0.0 - - - - - - -
30/12:30pm 15.7 NW 10 19 1009.7 - 0.0 - - - - - - -
30/12:00pm 15.6 NW 9 17 1010.0 - 0.0 - - - - - - -
30/11:30am 15.2 NNW 11 17 1010.5 - 0.0 - - - - - - -
30/11:00am 14.3 NNW 11 22 1011.2 - 0.0 - - - - - - -
30/10:30am 13.9 NW 8 15 1011.6 - 0.0 - - - - - - -
30/10:00am 13.4 NNW 14 22 1011.3 - 0.0 - - - - - - -
30/09:30am 12.7 NNW 11 15 1011.3 - 0.0 - - - - - - -
30/09:00am 12.7 NNW 8 11 1011.2 - 6.0 - - - - - - -
30/08:30am 13.2 NNW 6 10 1011.0 - 6.0 - - - - - - -
30/08:00am 12.7 NNW 8 16 1010.9 - 6.0 - - - - - - -
30/07:30am 12.3 NNW 9 14 1011.0 - 6.0 - - - - - - -
30/07:00am 12.3 NNW 10 14 1011.0 - 6.0 - - - - - - -
30/06:30am 12.2 NW 6 12 1010.7 - 6.0 - - - - - - -
30/06:00am 12.2 WNW 6 13 1010.7 - 6.0 - - - - - - -
30/05:30am 12.3 WNW 5 11 1010.3 - 6.0 - - - - - - -
30/05:00am 12.3 WNW 5 12 1010.0 - 6.0 - - - - - - -
30/04:30am 12.3 NW 6 12 1009.8 - 6.0 - - - - - - -
30/04:00am 12.6 WNW 7 13 1009.7 - 6.0 - - - - - - -
30/03:30am 12.7 WNW 7 14 1009.8 - 6.0 - - - - - - -
30/03:00am 12.8 W 10 17 1010.0 - 6.0 - - - - - - -
30/02:30am 12.5 WNW 6 12 1009.8 - 6.0 - - - - - - -
30/02:00am 13.0 NW 7 13 1009.7 - 6.0 - - - - - - -
30/01:30am 13.3 WNW 7 14 1009.7 - 6.0 - - - - - - -
30/01:00am 13.1 WNW 9 17 1009.4 - 6.0 - - - - - - -
30/12:30am 12.5 WNW 7 15 1009.3 - 5.8 - - - - - - -
30/12:00am 12.8 WNW 7 16 1009.3 - 5.6 - - - - - - -
 
Date/Time
EST
Temp

°C
Wind Pressure Rain
since 9am
mm
Weather Cloud Vis
km
Sea
Height
m
Swell
Dir
 
Speed
knots
Gust
knots
hPa Trend Height
m
Period
s
Dir
29/11:30pm 12.7 WNW 6 12 1009.3 - 5.6 - - - - - - -
29/11:00pm 13.0 WNW 8 17 1009.2 - 5.6 - - - - - - -
29/10:30pm 12.8 NW 7 14 1008.7 - 5.6 - - - - - - -
29/10:00pm 12.5 WNW 7 13 1008.7 - 5.6 - - - - - - -
29/09:30pm 13.0 W 11 17 1008.6 - 5.4 - - - - - - -
29/09:00pm 13.4 W 10 17 1008.1 - 3.0 Rain - - - - - -
29/08:30pm 14.4 NW 12 25 1007.3 - 2.2 - - - - - - -
29/08:00pm 14.7 NW 11 18 1007.1 - 2.2 - - - - - - -
29/07:30pm 14.9 NW 11 19 1007.1 - 2.2 - - - - - - -
29/07:00pm 15.0 NW 11 22 1007.0 - 2.2 - - - - - - -
29/06:30pm 14.4 NW 9 20 1006.4 - 2.2 - - - - - - -
29/06:00pm 13.0 NNW 19 26 1006.2 - 2.2 - - - - - - -
29/05:30pm 12.5 NNW 17 23 1006.1 - 2.2 - - - - - - -
29/05:00pm 12.0 NNW 20 26 1006.1 - 2.2 - - - - - - -
29/04:30pm 12.0 NNW 13 20 1006.1 - 1.4 - - - - - - -
29/04:00pm 13.3 NNW 22 33 1005.4 - 0.2 - - - - - - -
29/03:34pm 13.5 NNW 23 33 1005.1 - 0.2 - - - - - - -
29/03:30pm 13.2 NNW 23 31 1005.1 - 0.2 - - - - - - -
29/03:02pm 13.3 NNW 22 33 1005.1 - 0.0 - - - - - - -
29/03:00pm 13.4 NNW 22 30 1005.1 - 0.0 - - - - - - -
29/02:41pm 13.9 NNW 21 32 1004.8 - 0.0 - - - - - - -
29/02:30pm 13.4 NNW 23 31 1004.7 - 0.0 - - - - - - -
29/02:11pm 13.4 NNW 22 32 1004.8 - 0.0 - - - - - - -
29/02:00pm 13.3 NNW 23 30 1004.9 - 0.0 - - - - - - -
29/01:30pm 13.0 NNW 21 31 1005.4 - 0.0 - - - - - - -
29/01:00pm 13.1 NNW 22 29 1005.3 - 0.0 - - - - - - -
29/12:30pm 13.1 NNW 25 32 1005.4 - 0.0 - - - - - - -
29/12:00pm 13.1 N 26 34 1006.1 - 0.0 - - - - - - -
29/11:30am 13.2 N 23 29 1006.7 - 0.0 - - - - - - -
29/11:00am 13.2 N 24 31 1007.1 - 0.0 - - - - - - -
29/10:30am 12.8 N 25 34 1007.0 - 0.0 - - - - - - -
29/10:00am 12.6 N 25 31 1006.6 - 0.0 - - - - - - -
29/09:30am 12.5 N 25 32 1007.4 - 0.0 - - - - - - -
29/09:00am 12.3 N 26 33 1007.3 - 0.0 - - - - - - -
29/08:30am 12.2 N 23 29 1007.7 - 0.0 - - - - - - -
29/08:00am 12.1 N 25 31 1007.9 - 0.0 - - - - - - -
29/07:30am 12.2 N 24 30 1007.4 - 0.0 - - - - - - -
29/07:00am 12.2 N 19 25 1007.4 - 0.0 - - - - - - -
29/06:30am 12.2 N 22 28 1007.4 - 0.0 - - - - - - -
29/06:00am 12.2 N 21 27 1007.7 - 0.0 - - - - - - -
29/05:30am 12.2 N 23 31 1007.3 - 0.0 - - - - - - -
29/05:00am 12.4 N 24 30 1007.6 - 0.0 - - - - - - -
29/04:30am 12.6 N 23 30 1007.6 - 0.0 - - - - - - -
29/04:00am 12.6 N 24 29 1007.5 - 0.0 - - - - - - -
29/03:30am 12.7 N 23 28 1007.9 - 0.0 - - - - - - -
29/03:00am 12.5 N 17 23 1008.6 - 0.0 - - - - - - -
29/02:30am 12.5 N 23 27 1008.8 - 0.0 - - - - - - -
29/02:00am 12.4 N 24 31 1009.1 - 0.0 - - - - - - -
29/01:30am 12.4 N 24 30 1009.4 - 0.0 - - - - - - -
29/01:00am 12.8 N 24 29 1009.5 - 0.0 - - - - - - -
29/12:30am 12.9 N 22 27 1010.2 - 0.0 - - - - - - -
29/12:00am 13.0 N 22 27 1010.6 - 0.0 - - - - - - -
 
Date/Time
EST
Temp

°C
Wind Pressure Rain
since 9am
mm
Weather Cloud Vis
km
Sea
Height
m
Swell
Dir
 
Speed
knots
Gust
knots
hPa Trend Height
m
Period
s
Dir
28/11:30pm 13.0 N 21 27 1010.9 - 0.0 - - - - - - -
28/11:00pm 12.8 N 20 24 1011.2 - 0.0 - - - - - - -
28/10:30pm 12.6 N 19 23 1011.4 - 0.0 - - - - - - -
28/10:00pm 12.7 N 21 25 1011.4 - 0.0 - - - - - - -

Other Formats:

Comma delimited format used in spreadsheet applications
http://www.bom.gov.au/fwo/IDV60701/IDV60701.94892.axf

JavaScript Object Notation format (JSON) in row-major order
http://www.bom.gov.au/fwo/IDV60701/IDV60701.94892.json